createdAt,value
2023-04-26T00:03:00.852Z,3.58
2023-04-26T00:08:05.634Z,3.42
2023-04-26T00:13:08.459Z,4.20
2023-04-26T00:18:12.549Z,3.78
2023-04-26T00:23:17.445Z,2.97
2023-04-26T00:28:20.650Z,3.83
2023-04-26T00:33:23.479Z,3.05
2023-04-26T00:38:27.635Z,3.28
2023-04-26T00:43:30.411Z,2.83
2023-04-26T00:48:34.175Z,4.57
2023-04-26T00:53:38.482Z,3.70
2023-04-26T00:58:41.322Z,3.78
2023-04-26T01:03:46.914Z,4.40
2023-04-26T01:08:53.430Z,3.55
2023-04-26T01:13:58.473Z,3.53
2023-04-26T01:19:09.477Z,3.67
2023-04-26T01:24:14.716Z,3.92
2023-04-26T01:29:19.097Z,3.28
2023-04-26T01:34:21.810Z,3.47
2023-04-26T01:39:25.835Z,3.17
2023-04-26T01:44:28.561Z,3.20
2023-04-26T01:49:31.411Z,3.25
2023-04-26T01:54:35.676Z,3.30
2023-04-26T01:59:38.431Z,3.00
2023-04-26T02:04:41.309Z,3.10
2023-04-26T02:09:46.473Z,3.05
2023-04-26T02:14:49.258Z,2.72
2023-04-26T02:19:52.031Z,3.42
2023-04-26T02:24:56.376Z,3.35
2023-04-26T02:30:03.866Z,3.35
2023-04-26T02:35:07.766Z,2.88
2023-04-26T02:40:13.305Z,3.63
2023-04-26T02:45:17.102Z,3.30
2023-04-26T02:50:20.009Z,4.13
2023-04-26T02:55:24.991Z,3.63
2023-04-26T03:00:28.510Z,3.00
2023-04-26T03:05:31.418Z,4.47
2023-04-26T03:10:35.643Z,5.03
2023-04-26T03:15:38.565Z,4.25
2023-04-26T03:20:41.923Z,3.83
2023-04-26T03:25:47.183Z,4.85
2023-04-26T03:30:50.374Z,4.20
2023-04-26T03:35:53.626Z,4.45
2023-04-26T03:40:58.259Z,4.70
2023-04-26T03:46:02.252Z,4.68
2023-04-26T03:51:05.187Z,4.10
2023-04-26T03:56:09.795Z,4.95
2023-04-26T04:01:13.652Z,5.38
2023-04-26T04:06:17.234Z,4.93
2023-04-26T04:11:21.393Z,4.30
2023-04-26T04:16:24.162Z,5.00
2023-04-26T04:21:27.849Z,4.47
2023-04-26T04:26:32.927Z,4.50
2023-04-26T04:31:36.361Z,3.75
2023-04-26T04:36:40.690Z,4.55
2023-04-26T04:41:48.152Z,5.00
2023-04-26T04:46:52.592Z,4.50
2023-04-26T04:51:57.483Z,2.70
2023-04-26T04:57:03.185Z,4.07
2023-04-26T05:02:07.290Z,3.73
2023-04-26T05:07:10.441Z,3.90
2023-04-26T05:12:16.632Z,3.72
2023-04-26T05:17:19.573Z,3.25
2023-04-26T05:22:23.062Z,4.55
2023-04-26T05:27:29.391Z,5.65
2023-04-26T05:32:51.223Z,4.57
2023-04-26T05:38:09.159Z,5.32
2023-04-26T05:43:14.151Z,4.22
2023-04-26T05:48:19.347Z,4.15
2023-04-26T05:53:24.173Z,5.10
2023-04-26T05:58:28.319Z,4.53
2023-04-26T06:03:32.212Z,4.20
2023-04-26T06:08:39.171Z,5.97
2023-04-26T06:13:44.147Z,5.15
2023-04-26T06:18:47.970Z,4.22
2023-04-26T06:23:51.435Z,7.45
2023-04-26T06:28:57.467Z,8.52
2023-04-26T06:34:00.275Z,5.22
2023-04-26T06:39:04.088Z,5.40
2023-04-26T06:44:09.590Z,5.13
2023-04-26T06:49:20.056Z,4.65
2023-04-26T06:54:24.174Z,3.97
2023-04-26T06:59:28.284Z,3.83
2023-04-26T07:04:32.436Z,3.17
2023-04-26T07:09:35.735Z,3.92
2023-04-26T07:14:43.372Z,3.50
2023-04-26T07:19:46.242Z,3.75
2023-04-26T07:24:48.987Z,2.92
2023-04-26T07:29:56.598Z,3.33
2023-04-26T07:35:00.288Z,3.78
2023-04-26T07:40:07.739Z,4.45
2023-04-26T07:45:14.802Z,5.57
2023-04-26T07:50:17.810Z,5.35
2023-04-26T07:55:20.506Z,4.63
2023-04-26T08:00:27.105Z,5.30
2023-04-26T08:05:30.045Z,4.18
2023-04-26T08:10:33.057Z,4.60
2023-04-26T08:15:37.246Z,4.72
2023-04-26T08:20:40.068Z,4.47
2023-04-26T08:25:42.743Z,3.10
2023-04-26T08:30:46.944Z,3.83
2023-04-26T08:35:49.862Z,3.97
2023-04-26T08:40:54.453Z,3.97
2023-04-26T08:46:00.272Z,4.30
2023-04-26T08:51:06.508Z,3.15
2023-04-26T08:56:13.298Z,2.78
2023-04-26T09:01:21.586Z,2.58
2023-04-26T09:06:25.418Z,2.15
2023-04-26T09:11:28.379Z,2.70
2023-04-26T09:16:40.009Z,2.97
2023-04-26T09:28:01.879Z,2.40
2023-04-26T09:33:07.934Z,2.70
2023-04-26T09:38:14.267Z,2.58
2023-04-26T09:43:18.631Z,2.15
2023-04-26T09:48:26.420Z,2.60
2023-04-26T09:53:32.392Z,2.42
2023-04-26T09:58:36.410Z,2.42
2023-04-26T10:03:41.892Z,2.92
2023-04-26T10:08:45.760Z,2.75
2023-04-26T10:13:52.067Z,2.53
2023-04-26T10:19:00.025Z,2.53
2023-04-26T10:24:02.914Z,2.97
2023-04-26T10:29:05.863Z,2.15
2023-04-26T10:34:23.902Z,2.55
2023-04-26T10:39:28.217Z,2.20
2023-04-26T10:44:49.926Z,1.95
2023-04-26T10:49:55.404Z,1.63
2023-04-26T10:55:00.617Z,2.55
2023-04-26T11:00:23.892Z,2.65
2023-04-26T11:05:38.416Z,1.65
2023-04-26T11:10:42.696Z,2.15
2023-04-26T11:15:52.005Z,2.08
2023-04-26T11:20:56.775Z,2.10
2023-04-26T11:26:00.355Z,2.10
2023-04-26T11:31:04.432Z,2.95
2023-04-26T11:36:10.421Z,4.05
2023-04-26T11:41:13.507Z,2.50
2023-04-26T11:46:16.654Z,2.38
2023-04-26T11:51:23.128Z,3.00
2023-04-26T11:56:26.830Z,3.07
2023-04-26T12:01:31.796Z,7.07
2023-04-26T12:06:45.262Z,2.80
2023-04-26T12:11:50.681Z,2.85
2023-04-26T12:16:54.228Z,9.45
2023-04-26T12:21:58.358Z,9.27
2023-04-26T12:27:04.474Z,3.70
2023-04-26T12:32:07.693Z,3.20
2023-04-26T12:37:12.466Z,2.90
2023-04-26T12:42:15.508Z,2.40
2023-04-26T12:47:18.224Z,3.08
2023-04-26T12:52:24.567Z,3.08
2023-04-26T12:57:27.367Z,2.40
2023-04-26T13:02:30.731Z,2.40
2023-04-26T13:07:36.564Z,3.05
2023-04-26T13:12:39.835Z,3.00
2023-04-26T13:17:44.406Z,2.42
2023-04-26T13:22:51.619Z,2.63
2023-04-26T13:27:56.200Z,2.50
2023-04-26T13:33:00.603Z,2.35
2023-04-26T13:38:04.851Z,2.20
2023-04-26T13:43:07.674Z,2.22
2023-04-26T13:48:11.592Z,3.65
2023-04-26T13:53:16.560Z,2.60
2023-04-26T13:58:19.302Z,6.18
2023-04-26T14:03:22.926Z,5.75
2023-04-26T14:08:28.647Z,4.47
2023-04-26T14:13:31.623Z,2.92
2023-04-26T14:18:35.250Z,3.28
2023-04-26T14:23:39.871Z,3.10
2023-04-26T14:28:42.986Z,3.22
2023-04-26T14:33:46.596Z,3.38
2023-04-26T14:38:51.777Z,2.83
2023-04-26T14:43:54.610Z,2.63
2023-04-26T14:48:57.673Z,3.92
2023-04-26T14:54:03.414Z,2.55
2023-04-26T14:59:06.668Z,2.88
2023-04-26T15:04:09.715Z,2.73
2023-04-26T15:09:14.048Z,2.80
2023-04-26T15:19:19.487Z,2.92
2023-04-26T15:24:24.339Z,3.05
2023-04-26T15:29:27.777Z,2.78
2023-04-26T15:34:40.056Z,3.92
2023-04-26T15:39:44.485Z,2.75
2023-04-26T15:44:50.327Z,2.45
2023-04-26T15:49:54.695Z,2.17
2023-04-26T15:54:59.672Z,3.05
2023-04-26T16:00:05.840Z,2.95
2023-04-26T16:05:11.102Z,3.88
2023-04-26T16:10:15.381Z,10.53
2023-04-26T16:15:18.648Z,3.05
2023-04-26T16:20:22.773Z,2.25
2023-04-26T16:25:26.892Z,2.50
2023-04-26T16:30:30.370Z,6.65
2023-04-26T16:35:33.781Z,2.20
2023-04-26T16:40:38.102Z,1.90
2023-04-26T16:45:41.142Z,2.28
2023-04-26T16:50:43.816Z,2.15
2023-04-26T16:55:47.991Z,3.20
2023-04-26T17:00:50.744Z,2.35
2023-04-26T17:05:53.540Z,2.28
2023-04-26T17:10:59.722Z,3.97
2023-04-26T17:16:02.858Z,3.47
2023-04-26T17:21:07.074Z,2.58
2023-04-26T17:26:11.804Z,2.65
2023-04-26T17:31:14.597Z,3.00
2023-04-26T17:36:17.804Z,2.60
2023-04-26T17:41:22.953Z,2.50
2023-04-26T17:46:27.148Z,3.15
2023-04-26T17:51:30.633Z,2.63
2023-04-26T17:56:34.811Z,2.63
2023-04-26T18:01:37.661Z,3.40
2023-04-26T18:06:40.744Z,2.65
2023-04-26T18:11:47.917Z,3.20
2023-04-26T18:16:52.552Z,2.90
2023-04-26T18:21:55.489Z,3.30
2023-04-26T18:26:59.836Z,3.15
2023-04-26T18:32:03.204Z,2.63
2023-04-26T18:37:06.483Z,2.03
2023-04-26T18:42:10.687Z,2.90
2023-04-26T18:47:13.515Z,5.03
2023-04-26T18:52:16.209Z,4.72
2023-04-26T18:57:22.631Z,3.47
2023-04-26T19:02:25.545Z,4.30
2023-04-26T19:07:28.666Z,6.75
2023-04-26T19:12:34.796Z,4.20
2023-04-26T19:17:37.558Z,4.00
2023-04-26T19:22:41.680Z,3.72
2023-04-26T19:27:45.947Z,5.20
2023-04-26T19:32:49.324Z,6.63
2023-04-26T19:37:52.568Z,5.50
2023-04-26T19:42:58.182Z,12.15
2023-04-26T19:48:00.939Z,17.67
2023-04-26T19:53:05.858Z,9.98
2023-04-26T19:58:11.629Z,6.93
2023-04-26T20:03:14.836Z,7.28
2023-04-26T20:08:17.880Z,7.40
2023-04-26T20:13:23.291Z,7.45
2023-04-26T20:18:26.169Z,6.32
2023-04-26T20:23:29.030Z,7.80
2023-04-26T20:28:33.520Z,9.30
2023-04-26T20:33:37.322Z,19.13
2023-04-26T20:38:40.019Z,13.48
2023-04-26T20:43:44.311Z,12.98
2023-04-26T20:48:48.002Z,15.65
2023-04-26T20:53:51.023Z,13.80
2023-04-26T20:58:55.080Z,14.23
2023-04-26T21:03:58.051Z,15.10
2023-04-26T21:09:01.098Z,13.88
2023-04-26T21:14:06.736Z,13.48
2023-04-26T21:19:09.791Z,10.02
2023-04-26T21:24:14.779Z,5.68
2023-04-26T21:29:18.897Z,5.53
2023-04-26T21:34:21.723Z,8.13
2023-04-26T21:39:24.481Z,7.88
2023-04-26T21:44:29.001Z,8.93
2023-04-26T21:49:31.675Z,9.20
2023-04-26T21:54:35.713Z,9.25
2023-04-26T21:59:42.189Z,8.32
2023-04-26T22:04:44.956Z,9.10
2023-04-26T22:09:49.060Z,9.20
2023-04-26T22:14:53.309Z,7.32
2023-04-26T22:19:56.483Z,7.25
2023-04-26T22:24:59.659Z,8.88
2023-04-26T22:30:12.740Z,8.35
2023-04-26T22:35:23.948Z,10.10
2023-04-26T22:40:26.692Z,9.35
2023-04-26T22:45:30.952Z,8.80
2023-04-26T22:50:33.692Z,8.55
2023-04-26T22:55:36.767Z,9.18
2023-04-26T23:00:41.082Z,9.13
2023-04-26T23:05:43.834Z,7.53
2023-04-26T23:10:46.753Z,6.18
2023-04-26T23:15:50.911Z,5.82
2023-04-26T23:20:53.694Z,6.45
2023-04-26T23:25:56.849Z,6.07
2023-04-26T23:31:01.135Z,7.25
2023-04-26T23:36:04.076Z,8.43
2023-04-26T23:41:06.791Z,6.25
2023-04-26T23:46:10.962Z,6.30
2023-04-26T23:51:13.754Z,7.38
2023-04-26T23:56:16.509Z,6.75
